sensor_id;sensor_type;location;lat;lon;timestamp;pressure;altitude;pressure_sealevel;temperature;humidity
10638;BME280;47007;49.252;8.904;2023-01-29T00:00:07;101026.16;;;0.69;100.00
10638;BME280;47007;49.252;8.904;2023-01-29T00:01:09;101031.38;;;0.69;100.00
10638;BME280;47007;49.252;8.904;2023-01-29T00:01:51;101029.88;;;0.65;100.00
10638;BME280;47007;49.252;8.904;2023-01-29T00:02:33;100999.75;;;0.45;100.00
10638;BME280;47007;49.252;8.904;2023-01-29T00:03:15;101013.47;;;0.49;100.00
10638;BME280;47007;49.252;8.904;2023-01-29T00:03:56;101011.56;;;0.51;100.00
10638;BME280;47007;49.252;8.904;2023-01-29T00:04:38;101037.88;;;0.62;100.00
10638;BME280;47007;49.252;8.904;2023-01-29T00:05:20;101036.00;;;0.64;100.00
10638;BME280;47007;49.252;8.904;2023-01-29T00:06:09;101015.88;;;0.52;100.00
10638;BME280;47007;49.252;8.904;2023-01-29T00:06:50;101026.72;;;0.60;100.00
10638;BME280;47007;49.252;8.904;2023-01-29T00:07:32;101029.22;;;0.61;100.00
10638;BME280;47007;49.252;8.904;2023-01-29T00:08:14;101038.09;;;0.73;100.00
10638;BME280;47007;49.252;8.904;2023-01-29T00:08:56;101037.25;;;0.73;100.00
10638;BME280;47007;49.252;8.904;2023-01-29T00:09:38;101027.94;;;0.68;100.00
10638;BME280;47007;49.252;8.904;2023-01-29T00:10:20;101034.06;;;0.67;100.00
10638;BME280;47007;49.252;8.904;2023-01-29T00:11:04;101046.31;;;0.81;100.00
10638;BME280;47007;49.252;8.904;2023-01-29T00:11:46;101036.78;;;0.80;100.00
10638;BME280;47007;49.252;8.904;2023-01-29T00:12:28;101035.88;;;0.81;100.00
10638;BME280;47007;49.252;8.904;2023-01-29T00:13:10;101033.00;;;0.86;100.00
10638;BME280;47007;49.252;8.904;2023-01-29T00:13:52;101035.50;;;0.87;100.00
10638;BME280;47007;49.252;8.904;2023-01-29T00:14:33;101032.88;;;0.87;100.00
10638;BME280;47007;49.252;8.904;2023-01-29T00:15:16;101033.25;;;0.81;100.00
10638;BME280;47007;49.252;8.904;2023-01-29T00:15:58;101014.50;;;0.75;100.00
10638;BME280;47007;49.252;8.904;2023-01-29T00:16:40;101019.63;;;0.76;100.00
10638;BME280;47007;49.252;8.904;2023-01-29T00:17:22;101027.28;;;0.79;100.00
10638;BME280;47007;49.252;8.904;2023-01-29T00:18:04;101047.44;;;0.91;100.00
10638;BME280;47007;49.252;8.904;2023-01-29T00:18:46;101042.88;;;0.95;100.00
10638;BME280;47007;49.252;8.904;2023-01-29T00:19:27;101040.44;;;0.92;100.00
10638;BME280;47007;49.252;8.904;2023-01-29T00:20:09;101030.66;;;0.81;100.00
10638;BME280;47007;49.252;8.904;2023-01-29T00:20:52;101039.50;;;0.93;100.00
10638;BME280;47007;49.252;8.904;2023-01-29T00:21:33;101022.91;;;0.80;100.00
10638;BME280;47007;49.252;8.904;2023-01-29T00:22:15;101040.53;;;0.90;100.00
10638;BME280;47007;49.252;8.904;2023-01-29T00:22:57;101024.75;;;0.78;100.00
10638;BME280;47007;49.252;8.904;2023-01-29T00:23:39;101039.16;;;0.85;100.00
10638;BME280;47007;49.252;8.904;2023-01-29T00:24:21;101041.84;;;0.83;100.00
10638;BME280;47007;49.252;8.904;2023-01-29T00:25:03;101042.84;;;0.81;100.00
10638;BME280;47007;49.252;8.904;2023-01-29T00:25:45;101022.97;;;0.64;100.00
10638;BME280;47007;49.252;8.904;2023-01-29T00:26:27;101019.81;;;0.59;100.00
10638;BME280;47007;49.252;8.904;2023-01-29T00:27:09;101025.03;;;0.59;100.00
10638;BME280;47007;49.252;8.904;2023-01-29T00:27:51;101051.88;;;0.75;100.00
10638;BME280;47007;49.252;8.904;2023-01-29T00:28:33;101051.03;;;0.75;100.00
10638;BME280;47007;49.252;8.904;2023-01-29T00:29:15;101050.09;;;0.76;100.00
10638;BME280;47007;49.252;8.904;2023-01-29T00:29:58;101052.84;;;0.74;100.00
10638;BME280;47007;49.252;8.904;2023-01-29T00:31:16;101024.81;;;0.62;100.00
10638;BME280;47007;49.252;8.904;2023-01-29T00:31:58;101045.81;;;0.75;100.00
10638;BME280;47007;49.252;8.904;2023-01-29T00:32:41;101033.06;;;0.70;100.00
10638;BME280;47007;49.252;8.904;2023-01-29T00:33:22;101052.53;;;0.79;100.00
10638;BME280;47007;49.252;8.904;2023-01-29T00:34:05;101018.13;;;0.58;100.00
10638;BME280;47007;49.252;8.904;2023-01-29T00:34:47;101046.66;;;0.75;100.00
10638;BME280;47007;49.252;8.904;2023-01-29T00:35:30;101045.81;;;0.75;100.00
10638;BME280;47007;49.252;8.904;2023-01-29T00:36:13;101046.66;;;0.75;100.00
10638;BME280;47007;49.252;8.904;2023-01-29T00:36:56;101048.53;;;0.73;100.00
10638;BME280;47007;49.252;8.904;2023-01-29T00:37:45;101036.78;;;0.66;100.00
10638;BME280;47007;49.252;8.904;2023-01-29T00:38:27;100987.13;;;0.38;100.00
10638;BME280;47007;49.252;8.904;2023-01-29T00:39:09;101039.78;;;0.74;100.00
10638;BME280;47007;49.252;8.904;2023-01-29T00:39:51;101048.53;;;0.73;100.00
10638;BME280;47007;49.252;8.904;2023-01-29T00:40:36;101037.88;;;0.62;100.00
10638;BME280;47007;49.252;8.904;2023-01-29T00:41:38;101043.31;;;0.73;100.00
10638;BME280;47007;49.252;8.904;2023-01-29T00:42:38;101048.63;;;0.71;100.00
10638;BME280;47007;49.252;8.904;2023-01-29T00:43:39;101050.47;;;0.69;100.00
10638;BME280;47007;49.252;8.904;2023-01-29T00:44:39;101048.88;;;0.67;100.00
10638;BME280;47007;49.252;8.904;2023-01-29T00:45:39;101048.63;;;0.71;100.00
10638;BME280;47007;49.252;8.904;2023-01-29T00:46:20;101047.69;;;0.73;100.00
10638;BME280;47007;49.252;8.904;2023-01-29T00:47:04;101045.34;;;0.68;100.00
10638;BME280;47007;49.252;8.904;2023-01-29T00:48:06;101029.22;;;0.61;100.00
10638;BME280;47007;49.252;8.904;2023-01-29T00:48:48;101026.72;;;0.60;100.00
10638;BME280;47007;49.252;8.904;2023-01-29T00:49:29;101049.91;;;0.64;100.00
10638;BME280;47007;49.252;8.904;2023-01-29T00:50:12;101041.53;;;0.59;100.00
10638;BME280;47007;49.252;8.904;2023-01-29T00:50:53;101005.59;;;0.34;100.00
10638;BME280;47007;49.252;8.904;2023-01-29T00:51:36;101047.91;;;0.54;100.00
10638;BME280;47007;49.252;8.904;2023-01-29T00:52:18;101021.72;;;0.41;100.00
10638;BME280;47007;49.252;8.904;2023-01-29T00:53:06;101033.81;;;0.42;100.00
10638;BME280;47007;49.252;8.904;2023-01-29T00:53:48;101039.03;;;0.42;100.00
10638;BME280;47007;49.252;8.904;2023-01-29T00:54:29;101033.34;;;0.35;100.00
10638;BME280;47007;49.252;8.904;2023-01-29T00:55:13;101012.53;;;0.20;100.00
10638;BME280;47007;49.252;8.904;2023-01-29T00:55:55;101003.47;;;0.11;100.00
10638;BME280;47007;49.252;8.904;2023-01-29T00:56:37;101038.91;;;0.29;100.00
10638;BME280;47007;49.252;8.904;2023-01-29T00:57:19;101027.25;;;0.21;100.00
10638;BME280;47007;49.252;8.904;2023-01-29T00:58:01;101003.81;;;0.05;100.00
10638;BME280;47007;49.252;8.904;2023-01-29T00:58:42;101032.38;;;0.22;100.00
10638;BME280;47007;49.252;8.904;2023-01-29T00:59:24;101040.84;;;0.26;100.00
10638;BME280;47007;49.252;8.904;2023-01-29T01:00:11;101038.91;;;0.29;100.00
10638;BME280;47007;49.252;8.904;2023-01-29T01:00:54;101037.81;;;0.33;100.00
10638;BME280;47007;49.252;8.904;2023-01-29T01:01:36;100996.22;;;0.16;100.00
10638;BME280;47007;49.252;8.904;2023-01-29T01:02:36;101029.72;;;0.38;100.00
10638;BME280;47007;49.252;8.904;2023-01-29T01:03:37;101042.88;;;0.51;100.00
10638;BME280;47007;49.252;8.904;2023-01-29T01:04:22;101034.31;;;0.49;100.00
10638;BME280;47007;49.252;8.904;2023-01-29T01:05:06;101021.16;;;0.50;100.00
10638;BME280;47007;49.252;8.904;2023-01-29T01:05:48;101007.00;;;0.40;100.00
10638;BME280;47007;49.252;8.904;2023-01-29T01:06:30;101023.06;;;0.48;100.00
10638;BME280;47007;49.252;8.904;2023-01-29T01:07:11;101038.16;;;0.57;100.00
10638;BME280;47007;49.252;8.904;2023-01-29T01:07:54;101015.22;;;0.48;100.00
10638;BME280;47007;49.252;8.904;2023-01-29T01:08:36;101038.06;;;0.59;100.00
10638;BME280;47007;49.252;8.904;2023-01-29T01:09:37;101028.91;;;0.52;100.00
10638;BME280;47007;49.252;8.904;2023-01-29T01:10:41;101033.38;;;0.50;100.00
10638;BME280;47007;49.252;8.904;2023-01-29T01:11:24;101044.56;;;0.52;100.00
10638;BME280;47007;49.252;8.904;2023-01-29T01:12:06;101031.31;;;0.41;100.00
10638;BME280;47007;49.252;8.904;2023-01-29T01:13:35;101039.34;;;0.52;100.00
10638;BME280;47007;49.252;8.904;2023-01-29T01:14:18;101035.50;;;0.43;100.00
10638;BME280;47007;49.252;8.904;2023-01-29T01:15:00;101018.63;;;0.34;100.00
10638;BME280;47007;49.252;8.904;2023-01-29T01:15:42;101041.88;;;0.53;100.00
10638;BME280;47007;49.252;8.904;2023-01-29T01:16:23;101026.59;;;0.47;100.00
10638;BME280;47007;49.252;8.904;2023-01-29T01:17:08;101004.94;;;0.31;100.00
10638;BME280;47007;49.252;8.904;2023-01-29T01:17:58;101045.16;;;0.57;100.00
10638;BME280;47007;49.252;8.904;2023-01-29T01:18:40;101035.81;;;0.53;100.00
10638;BME280;47007;49.252;8.904;2023-01-29T01:19:22;101036.81;;;0.50;100.00
10638;BME280;47007;49.252;8.904;2023-01-29T01:20:04;101038.41;;;0.53;100.00
10638;BME280;47007;49.252;8.904;2023-01-29T01:20:46;101024.59;;;0.37;100.00
10638;BME280;47007;49.252;8.904;2023-01-29T01:21:32;101035.69;;;0.40;100.00
10638;BME280;47007;49.252;8.904;2023-01-29T01:22:13;101041.31;;;0.48;100.00
10638;BME280;47007;49.252;8.904;2023-01-29T01:22:55;101038.97;;;0.44;100.00
10638;BME280;47007;49.252;8.904;2023-01-29T01:23:37;101046.41;;;0.50;100.00
10638;BME280;47007;49.252;8.904;2023-01-29T01:24:19;101030.47;;;0.40;100.00
10638;BME280;47007;49.252;8.904;2023-01-29T01:25:01;101012.06;;;0.27;100.00
10638;BME280;47007;49.252;8.904;2023-01-29T01:25:43;101038.78;;;0.47;100.00
10638;BME280;47007;49.252;8.904;2023-01-29T01:26:25;101056.59;;;0.54;100.00
10638;BME280;47007;49.252;8.904;2023-01-29T01:27:07;101042.63;;;0.55;100.00
10638;BME280;47007;49.252;8.904;2023-01-29T01:27:53;101059.13;;;0.56;100.00
10638;BME280;47007;49.252;8.904;2023-01-29T01:28:35;101009.28;;;0.30;100.00
10638;BME280;47007;49.252;8.904;2023-01-29T01:29:16;101051.19;;;0.57;100.00
10638;BME280;47007;49.252;8.904;2023-01-29T01:29:59;101002.22;;;0.32;100.00
10638;BME280;47007;49.252;8.904;2023-01-29T01:30:40;101015.28;;;0.32;100.00
10638;BME280;47007;49.252;8.904;2023-01-29T01:31:22;100998.94;;;0.29;100.00
10638;BME280;47007;49.252;8.904;2023-01-29T01:32:04;101049.59;;;0.55;100.00
10638;BME280;47007;49.252;8.904;2023-01-29T01:32:46;101051.38;;;0.54;100.00
10638;BME280;47007;49.252;8.904;2023-01-29T01:33:28;101043.91;;;0.48;100.00
10638;BME280;47007;49.252;8.904;2023-01-29T01:34:10;101052.66;;;0.47;100.00
10638;BME280;47007;49.252;8.904;2023-01-29T01:34:51;101055.53;;;0.43;100.00
10638;BME280;47007;49.252;8.904;2023-01-29T01:35:34;101052.16;;;0.41;100.00
10638;BME280;47007;49.252;8.904;2023-01-29T01:36:16;101051.41;;;0.39;100.00
10638;BME280;47007;49.252;8.904;2023-01-29T01:36:58;101045.63;;;0.33;100.00
10638;BME280;47007;49.252;8.904;2023-01-29T01:37:41;101010.72;;;0.06;100.00
10638;BME280;47007;49.252;8.904;2023-01-29T01:38:22;101045.50;;;0.21;100.00
10638;BME280;47007;49.252;8.904;2023-01-29T01:39:04;101005.25;;;-0.05;100.00
10638;BME280;47007;49.252;8.904;2023-01-29T01:39:46;101029.78;;;0.07;100.00
10638;BME280;47007;49.252;8.904;2023-01-29T01:40:29;101023.34;;;-0.02;100.00
10638;BME280;47007;49.252;8.904;2023-01-29T01:41:13;101038.38;;;0.09;100.00
10638;BME280;47007;49.252;8.904;2023-01-29T01:41:55;101038.78;;;0.01;100.00
10638;BME280;47007;49.252;8.904;2023-01-29T01:42:40;101043.75;;;0.06;100.00
10638;BME280;47007;49.252;8.904;2023-01-29T01:43:21;101045.34;;;0.08;100.00
10638;BME280;47007;49.252;8.904;2023-01-29T01:44:04;101045.34;;;0.08;100.00
10638;BME280;47007;49.252;8.904;2023-01-29T01:45:03;101019.31;;;-0.08;100.00
10638;BME280;47007;49.252;8.904;2023-01-29T01:45:48;101024.09;;;0.00;100.00
10638;BME280;47007;49.252;8.904;2023-01-29T01:46:32;101029.88;;;0.05;100.00
10638;BME280;47007;49.252;8.904;2023-01-29T01:47:16;101012.31;;;-0.07;100.00
10638;BME280;47007;49.252;8.904;2023-01-29T01:48:04;101031.81;;;0.02;100.00
10638;BME280;47007;49.252;8.904;2023-01-29T01:48:55;101017.69;;;-0.10;100.00
10638;BME280;47007;49.252;8.904;2023-01-29T01:49:39;101027.78;;;-0.04;100.00
10638;BME280;47007;49.252;8.904;2023-01-29T01:50:37;100994.38;;;-0.27;100.00
10638;BME280;47007;49.252;8.904;2023-01-29T01:51:25;100997.13;;;-0.30;100.00
10638;BME280;47007;49.252;8.904;2023-01-29T01:52:09;101030.94;;;-0.13;100.00
10638;BME280;47007;49.252;8.904;2023-01-29T01:52:56;101027.03;;;-0.22;100.00
10638;BME280;47007;49.252;8.904;2023-01-29T01:53:54;101027.63;;;-0.17;100.00
10638;BME280;47007;49.252;8.904;2023-01-29T01:54:37;101029.41;;;-0.17;100.00
10638;BME280;47007;49.252;8.904;2023-01-29T01:55:22;101021.19;;;-0.25;100.00
10638;BME280;47007;49.252;8.904;2023-01-29T01:56:21;101036.47;;;-0.19;100.00
10638;BME280;47007;49.252;8.904;2023-01-29T01:57:09;100994.44;;;-0.45;100.00
10638;BME280;47007;49.252;8.904;2023-01-29T01:58:01;101027.22;;;-0.25;100.00
10638;BME280;47007;49.252;8.904;2023-01-29T01:58:50;101030.50;;;-0.21;100.00
10638;BME280;47007;49.252;8.904;2023-01-29T01:59:37;101027.88;;;-0.21;100.00
10638;BME280;47007;49.252;8.904;2023-01-29T02:00:21;100992.84;;;-0.47;100.00
10638;BME280;47007;49.252;8.904;2023-01-29T02:01:07;101007.56;;;-0.30;100.00
10638;BME280;47007;49.252;8.904;2023-01-29T02:01:52;101033.59;;;-0.15;100.00
10638;BME280;47007;49.252;8.904;2023-01-29T02:02:36;100999.75;;;-0.30;100.00
10638;BME280;47007;49.252;8.904;2023-01-29T02:03:46;100993.78;;;-0.32;100.00
10638;BME280;47007;49.252;8.904;2023-01-29T02:04:50;100989.16;;;-0.27;100.00
10638;BME280;47007;49.252;8.904;2023-01-29T02:05:52;101029.31;;;0.00;100.00
10638;BME280;47007;49.252;8.904;2023-01-29T02:06:55;101031.38;;;0.09;100.00
10638;BME280;47007;49.252;8.904;2023-01-29T02:07:57;101033.56;;;0.17;100.00
10638;BME280;47007;49.252;8.904;2023-01-29T02:09:08;101026.97;;;0.25;100.00
10638;BME280;47007;49.252;8.904;2023-01-29T02:10:14;101031.84;;;0.31;100.00
10638;BME280;47007;49.252;8.904;2023-01-29T02:10:58;100992.84;;;0.14;100.00
10638;BME280;47007;49.252;8.904;2023-01-29T02:11:40;101029.06;;;0.34;100.00
10638;BME280;47007;49.252;8.904;2023-01-29T02:12:22;100996.81;;;0.21;100.00
10638;BME280;47007;49.252;8.904;2023-01-29T02:13:05;101008.97;;;0.37;100.00
10638;BME280;47007;49.252;8.904;2023-01-29T02:13:48;101003.06;;;0.33;100.00
10638;BME280;47007;49.252;8.904;2023-01-29T02:14:40;101023.69;;;0.52;100.00
10638;BME280;47007;49.252;8.904;2023-01-29T02:15:22;101003.75;;;0.37;100.00
10638;BME280;47007;49.252;8.904;2023-01-29T02:16:04;101033.94;;;0.55;100.00
10638;BME280;47007;49.252;8.904;2023-01-29T02:16:47;101012.78;;;0.45;100.00
10638;BME280;47007;49.252;8.904;2023-01-29T02:17:30;101022.75;;;0.53;100.00
10638;BME280;47007;49.252;8.904;2023-01-29T02:18:13;101016.56;;;0.40;100.00
10638;BME280;47007;49.252;8.904;2023-01-29T02:18:56;101029.28;;;0.46;100.00
10638;BME280;47007;49.252;8.904;2023-01-29T02:26:02;101037.44;;;0.40;100.00
10638;BME280;47007;49.252;8.904;2023-01-29T02:27:08;101032.22;;;0.40;100.00
10638;BME280;47007;49.252;8.904;2023-01-29T02:29:31;101023.31;;;0.44;100.00
10638;BME280;47007;49.252;8.904;2023-01-29T02:30:35;101034.31;;;0.49;100.00
10638;BME280;47007;49.252;8.904;2023-01-29T02:31:33;101012.50;;;0.35;100.00
10638;BME280;47007;49.252;8.904;2023-01-29T02:33:18;101029.19;;;0.47;100.00
10638;BME280;47007;49.252;8.904;2023-01-29T02:35:02;101006.44;;;0.35;100.00
10638;BME280;47007;49.252;8.904;2023-01-29T02:37:11;100994.03;;;0.39;100.00
10638;BME280;47007;49.252;8.904;2023-01-29T02:38:02;101025.97;;;0.58;100.00
10638;BME280;47007;49.252;8.904;2023-01-29T02:39:50;101002.22;;;0.32;100.00
10638;BME280;47007;49.252;8.904;2023-01-29T02:42:46;101006.47;;;0.19;100.00
10638;BME280;47007;49.252;8.904;2023-01-29T02:43:40;101037.44;;;0.40;100.00
10638;BME280;47007;49.252;8.904;2023-01-29T02:44:36;101031.31;;;0.41;100.00
10638;BME280;47007;49.252;8.904;2023-01-29T02:45:31;101039.03;;;0.42;100.00
10638;BME280;47007;49.252;8.904;2023-01-29T02:46:18;101034.66;;;0.43;100.00
10638;BME280;47007;49.252;8.904;2023-01-29T02:47:20;101026.84;;;0.43;100.00
10638;BME280;47007;49.252;8.904;2023-01-29T02:48:04;101031.81;;;0.47;100.00
10638;BME280;47007;49.252;8.904;2023-01-29T02:49:55;101016.06;;;0.49;100.00
10638;BME280;47007;49.252;8.904;2023-01-29T02:50:43;101027.06;;;0.54;100.00
10638;BME280;47007;49.252;8.904;2023-01-29T02:51:31;101018.69;;;0.49;100.00
10638;BME280;47007;49.252;8.904;2023-01-29T02:52:22;101012.75;;;0.31;100.00
10638;BME280;47007;49.252;8.904;2023-01-29T02:54:15;101025.78;;;0.31;100.00
10638;BME280;47007;49.252;8.904;2023-01-29T02:55:23;101026.25;;;0.23;100.00
10638;BME280;47007;49.252;8.904;2023-01-29T02:56:55;101011.84;;;0.16;100.00
10638;BME280;47007;49.252;8.904;2023-01-29T02:57:41;101011.19;;;0.13;100.00
10638;BME280;47007;49.252;8.904;2023-01-29T02:58:30;101017.91;;;0.17;100.00
10638;BME280;47007;49.252;8.904;2023-01-29T02:59:19;101009.16;;;0.18;100.00
10638;BME280;47007;49.252;8.904;2023-01-29T03:00:12;101012.34;;;0.23;100.00
10638;BME280;47007;49.252;8.904;2023-01-29T03:01:02;101005.38;;;0.23;100.00
10638;BME280;47007;49.252;8.904;2023-01-29T03:01:50;101003.50;;;0.25;100.00
10638;BME280;47007;49.252;8.904;2023-01-29T03:02:41;100980.56;;;0.16;100.00
10638;BME280;47007;49.252;8.904;2023-01-29T03:03:31;101002.91;;;0.36;100.00
10638;BME280;47007;49.252;8.904;2023-01-29T03:04:19;101009.78;;;0.37;100.00
10638;BME280;47007;49.252;8.904;2023-01-29T03:05:05;101009.34;;;0.45;100.00
10638;BME280;47007;49.252;8.904;2023-01-29T03:05:51;101005.63;;;0.49;100.00
10638;BME280;47007;49.252;8.904;2023-01-29T03:06:42;101016.63;;;0.54;100.00
10638;BME280;47007;49.252;8.904;2023-01-29T03:07:40;101006.19;;;0.54;100.00
10638;BME280;47007;49.252;8.904;2023-01-29T03:08:39;101012.06;;;0.57;100.00
10638;BME280;47007;49.252;8.904;2023-01-29T03:09:36;100980.66;;;0.45;100.00
10638;BME280;47007;49.252;8.904;2023-01-29T03:10:26;101010.38;;;0.56;100.00
10638;BME280;47007;49.252;8.904;2023-01-29T03:11:11;101007.13;;;0.53;100.00
10638;BME280;47007;49.252;8.904;2023-01-29T03:12:02;100998.91;;;0.45;100.00
10638;BME280;47007;49.252;8.904;2023-01-29T03:13:25;100995.63;;;0.41;100.00
10638;BME280;47007;49.252;8.904;2023-01-29T03:14:16;101020.16;;;0.53;100.00
10638;BME280;47007;49.252;8.904;2023-01-29T03:15:17;101013.09;;;0.55;100.00
10638;BME280;47007;49.252;8.904;2023-01-29T03:16:26;101011.22;;;0.57;100.00
10638;BME280;47007;49.252;8.904;2023-01-29T03:17:13;100989.31;;;0.45;100.00
10638;BME280;47007;49.252;8.904;2023-01-29T03:18:04;101016.63;;;0.54;100.00
10638;BME280;47007;49.252;8.904;2023-01-29T03:19:00;101017.63;;;0.51;100.00
10638;BME280;47007;49.252;8.904;2023-01-29T03:19:46;101019.59;;;0.48;100.00
10638;BME280;47007;49.252;8.904;2023-01-29T03:20:40;101017.91;;;0.47;100.00
10638;BME280;47007;49.252;8.904;2023-01-29T03:21:41;100988.44;;;0.30;100.00
10638;BME280;47007;49.252;8.904;2023-01-29T03:23:09;101000.19;;;0.38;100.00
10638;BME280;47007;49.252;8.904;2023-01-29T03:23:54;100997.78;;;0.34;100.00
10638;BME280;47007;49.252;8.904;2023-01-29T03:24:58;100994.19;;;0.21;100.00
10638;BME280;47007;49.252;8.904;2023-01-29T03:26:01;100980.84;;;0.12;100.00
10638;BME280;47007;49.252;8.904;2023-01-29T03:27:06;100964.97;;;0.00;100.00
10638;BME280;47007;49.252;8.904;2023-01-29T03:28:11;101014.97;;;0.23;100.00
10638;BME280;47007;49.252;8.904;2023-01-29T03:29:13;100966.63;;;-0.13;100.00
10638;BME280;47007;49.252;8.904;2023-01-29T03:30:15;101011.19;;;0.13;100.00
10638;BME280;47007;49.252;8.904;2023-01-29T03:31:40;100992.22;;;-0.05;100.00
10638;BME280;47007;49.252;8.904;2023-01-29T03:32:42;101008.53;;;-0.02;100.00
10638;BME280;47007;49.252;8.904;2023-01-29T03:33:26;100973.09;;;-0.20;100.00
10638;BME280;47007;49.252;8.904;2023-01-29T03:34:16;101006.19;;;-0.06;100.00
10638;BME280;47007;49.252;8.904;2023-01-29T03:35:07;100981.91;;;-0.22;100.00
10638;BME280;47007;49.252;8.904;2023-01-29T03:35:57;100978.66;;;-0.26;100.00
10638;BME280;47007;49.252;8.904;2023-01-29T03:36:58;101006.19;;;-0.06;100.00
10638;BME280;47007;49.252;8.904;2023-01-29T03:37:45;101005.19;;;-0.04;100.00
10638;BME280;47007;49.252;8.904;2023-01-29T03:38:28;101012.91;;;-0.02;100.00
10638;BME280;47007;49.252;8.904;2023-01-29T03:39:14;101015.44;;;-0.01;100.00
10638;BME280;47007;49.252;8.904;2023-01-29T03:39:57;101003.41;;;-0.03;100.00
10638;BME280;47007;49.252;8.904;2023-01-29T03:40:51;100992.31;;;-0.07;100.00
10638;BME280;47007;49.252;8.904;2023-01-29T03:42:55;101014.06;;;0.08;100.00
10638;BME280;47007;49.252;8.904;2023-01-29T03:44:36;101025.41;;;0.07;100.00
10638;BME280;47007;49.252;8.904;2023-01-29T03:49:13;101030.19;;;0.15;100.00
10638;BME280;47007;49.252;8.904;2023-01-29T03:50:08;101022.72;;;0.09;100.00
10638;BME280;47007;49.252;8.904;2023-01-29T03:51:10;101020.72;;;-0.02;100.00
10638;BME280;47007;49.252;8.904;2023-01-29T03:52:13;101024.19;;;-0.02;100.00
10638;BME280;47007;49.252;8.904;2023-01-29T03:54:22;101031.06;;;-0.01;100.00
10638;BME280;47007;49.252;8.904;2023-01-29T03:55:21;101009.03;;;-0.11;100.00
10638;BME280;47007;49.252;8.904;2023-01-29T03:56:06;101023.16;;;0.01;100.00
10638;BME280;47007;49.252;8.904;2023-01-29T03:57:03;101019.91;;;-0.03;100.00
10638;BME280;47007;49.252;8.904;2023-01-29T03:57:58;101001.13;;;-0.09;100.00
10638;BME280;47007;49.252;8.904;2023-01-29T03:58:46;101026.34;;;0.06;100.00
10638;BME280;47007;49.252;8.904;2023-01-29T03:59:36;100989.41;;;-0.16;100.00
10638;BME280;47007;49.252;8.904;2023-01-29T04:00:44;101032.72;;;0.00;100.00
10638;BME280;47007;49.252;8.904;2023-01-29T04:01:43;101006.03;;;-0.19;100.00
10638;BME280;47007;49.252;8.904;2023-01-29T04:02:37;101027.47;;;-0.14;100.00
10638;BME280;47007;49.252;8.904;2023-01-29T04:03:31;101026.88;;;-0.19;100.00
10638;BME280;47007;49.252;8.904;2023-01-29T04:04:36;101012.00;;;-0.32;100.00
10638;BME280;47007;49.252;8.904;2023-01-29T04:05:23;100990.53;;;-0.52;100.00
10638;BME280;47007;49.252;8.904;2023-01-29T04:06:22;101030.41;;;-0.36;100.00
10638;BME280;47007;49.252;8.904;2023-01-29T04:07:18;101028.91;;;-0.40;100.00
10638;BME280;47007;49.252;8.904;2023-01-29T04:08:17;101014.59;;;-0.48;100.00
10638;BME280;47007;49.252;8.904;2023-01-29T04:10:08;101025.94;;;-0.33;100.00
10638;BME280;47007;49.252;8.904;2023-01-29T04:10:54;100998.13;;;-0.49;100.00
10638;BME280;47007;49.252;8.904;2023-01-29T04:11:42;101031.09;;;-0.32;100.00
10638;BME280;47007;49.252;8.904;2023-01-29T04:12:29;100989.75;;;-0.54;100.00
10638;BME280;47007;49.252;8.904;2023-01-29T04:13:13;101030.94;;;-0.29;100.00
10638;BME280;47007;49.252;8.904;2023-01-29T04:13:58;100982.88;;;-0.55;100.00
10638;BME280;47007;49.252;8.904;2023-01-29T04:14:40;101024.78;;;-0.28;100.00
10638;BME280;47007;49.252;8.904;2023-01-29T04:15:26;101016.22;;;-0.30;100.00
10638;BME280;47007;49.252;8.904;2023-01-29T04:16:15;100994.44;;;-0.45;100.00
10638;BME280;47007;49.252;8.904;2023-01-29T04:17:30;100999.59;;;-0.43;100.00
10638;BME280;47007;49.252;8.904;2023-01-29T04:18:23;101026.38;;;-0.25;100.00
10638;BME280;47007;49.252;8.904;2023-01-29T04:19:19;100970.59;;;-0.53;100.00
10638;BME280;47007;49.252;8.904;2023-01-29T04:20:02;101018.56;;;-0.25;100.00
10638;BME280;47007;49.252;8.904;2023-01-29T04:20:46;101026.13;;;-0.21;100.00
10638;BME280;47007;49.252;8.904;2023-01-29T04:21:28;101004.34;;;-0.36;100.00
10638;BME280;47007;49.252;8.904;2023-01-29T04:22:27;100993.97;;;-0.51;100.00
10638;BME280;47007;49.252;8.904;2023-01-29T04:23:37;101019.50;;;-0.42;100.00
10638;BME280;47007;49.252;8.904;2023-01-29T04:24:18;101024.94;;;-0.47;100.00
10638;BME280;47007;49.252;8.904;2023-01-29T04:25:04;101022.41;;;-0.48;100.00
10638;BME280;47007;49.252;8.904;2023-01-29T04:26:17;101030.41;;;-0.51;100.00
10638;BME280;47007;49.252;8.904;2023-01-29T04:28:15;101040.16;;;-0.55;100.00
10638;BME280;47007;49.252;8.904;2023-01-29T04:28:50;101039.31;;;-0.55;100.00
10638;BME280;47007;49.252;8.904;2023-01-29T04:29:46;101026.97;;;-0.52;100.00
10638;BME280;47007;49.252;8.904;2023-01-29T04:30:53;101038.50;;;-0.40;100.00
10638;BME280;47007;49.252;8.904;2023-01-29T04:31:56;101023.25;;;-0.48;100.00
10638;BME280;47007;49.252;8.904;2023-01-29T04:34:10;101039.75;;;-0.31;100.00
10638;BME280;47007;49.252;8.904;2023-01-29T04:37:14;101035.69;;;-0.21;100.00
10638;BME280;47007;49.252;8.904;2023-01-29T04:38:17;101036.53;;;-0.21;100.00
10638;BME280;47007;49.252;8.904;2023-01-29T04:40:01;101038.97;;;-0.18;100.00
10638;BME280;47007;49.252;8.904;2023-01-29T04:41:04;101033.09;;;-0.21;100.00
10638;BME280;47007;49.252;8.904;2023-01-29T04:41:53;101032.94;;;-0.18;100.00
10638;BME280;47007;49.252;8.904;2023-01-29T04:43:03;101035.78;;;-0.23;100.00
10638;BME280;47007;49.252;8.904;2023-01-29T04:45:12;101010.31;;;-0.33;100.00
10638;BME280;47007;49.252;8.904;2023-01-29T04:46:49;101001.75;;;-0.36;100.00
10638;BME280;47007;49.252;8.904;2023-01-29T04:49:45;101034.44;;;-0.14;100.00
10638;BME280;47007;49.252;8.904;2023-01-29T04:51:26;101035.28;;;-0.14;100.00